Time,TemperatureF,DewpointF,PressureIn,WindDirection,WindDirectionDegrees,WindSpeedMPH,WindSpeedGustMPH,Humidity,HourlyPrecipIn,Conditions,Clouds,dailyrainin,SoftwareType,DateUTC
2013-10-19 00:01:00,49.9,49.9,30.00,South,178,0.0,0.0,100,-0.01,,,0.00,Weather View 32 v70,2013-10-19 04:01:00,
2013-10-19 00:02:00,49.9,49.9,30.00,South,178,0.0,0.0,100,-0.01,,,0.00,Weather View 32 v70,2013-10-19 04:02:00,
2013-10-19 00:07:00,49.8,49.8,30.00,South,178,0.0,0.0,100,-0.01,,,0.00,Weather View 32 v70,2013-10-19 04:07:00,
2013-10-19 00:12:00,49.8,49.8,29.99,South,187,0.0,0.0,100,-0.01,,,0.00,Weather View 32 v70,2013-10-19 04:12:00,
2013-10-19 00:17:00,49.8,49.8,29.99,South,187,0.0,0.0,100,-0.01,,,0.00,Weather View 32 v70,2013-10-19 04:17:00,
2013-10-19 00:22:00,49.8,49.8,30.00,South,187,0.0,0.0,100,-0.01,,,0.00,Weather View 32 v70,2013-10-19 04:22:00,
2013-10-19 00:27:00,49.8,49.8,29.99,South,187,0.0,0.0,100,-0.01,,,0.00,Weather View 32 v70,2013-10-19 04:27:00,
2013-10-19 00:32:00,49.7,49.7,29.99,South,187,0.0,0.0,100,-0.01,,,0.00,Weather View 32 v70,2013-10-19 04:32:00,
2013-10-19 00:37:00,49.6,49.6,29.99,South,187,0.0,0.0,100,-0.01,,,0.00,Weather View 32 v70,2013-10-19 04:37:00,
2013-10-19 00:42:00,49.6,49.6,29.99,South,190,0.0,0.0,100,-0.01,,,0.00,Weather View 32 v70,2013-10-19 04:42:00,
2013-10-19 00:47:00,49.4,49.4,29.98,South,191,0.0,0.0,100,-0.01,,,0.00,Weather View 32 v70,2013-10-19 04:47:00,
2013-10-19 00:52:00,49.4,49.4,29.98,South,191,0.0,0.0,100,-0.01,,,0.00,Weather View 32 v70,2013-10-19 04:52:00,
2013-10-19 00:57:00,49.3,49.3,29.98,South,191,0.0,0.0,100,0.00,,,0.00,Weather View 32 v70,2013-10-19 04:57:00,
2013-10-19 01:02:00,49.2,49.2,29.98,South,191,0.0,0.0,100,0.00,,,0.00,Weather View 32 v70,2013-10-19 05:02:00,
2013-10-19 01:07:00,49.2,49.2,29.98,South,191,0.0,0.0,100,0.00,,,0.00,Weather View 32 v70,2013-10-19 05:07:00,
2013-10-19 01:12:00,49.1,49.1,29.98,SSW,197,0.0,0.0,100,0.00,,,0.00,Weather View 32 v70,2013-10-19 05:12:00,
2013-10-19 01:17:00,48.9,48.9,29.98,SSW,195,0.0,0.0,100,0.00,,,0.00,Weather View 32 v70,2013-10-19 05:17:00,
2013-10-19 01:22:00,48.9,48.9,29.98,SSW,195,0.0,0.0,100,0.00,,,0.00,Weather View 32 v70,2013-10-19 05:22:00,
2013-10-19 01:27:00,48.9,48.9,29.97,SSW,195,0.0,0.0,100,0.00,,,0.00,Weather View 32 v70,2013-10-19 05:27:00,
2013-10-19 01:32:00,48.8,48.8,29.98,SSW,195,0.0,0.0,100,0.00,,,0.00,Weather View 32 v70,2013-10-19 05:32:00,
2013-10-19 01:37:00,48.8,48.8,29.98,SSW,195,0.0,0.0,100,0.00,,,0.00,Weather View 32 v70,2013-10-19 05:37:00,
2013-10-19 01:42:00,48.7,48.7,29.98,SSW,195,0.0,0.0,100,0.00,,,0.00,Weather View 32 v70,2013-10-19 05:42:00,
2013-10-19 01:47:00,48.6,48.6,29.98,SSW,195,0.0,0.0,100,0.00,,,0.00,Weather View 32 v70,2013-10-19 05:47:00,
2013-10-19 01:52:00,48.6,48.6,29.98,SSE,163,0.0,0.0,100,0.00,,,0.00,Weather View 32 v70,2013-10-19 05:52:00,
2013-10-19 01:57:00,48.6,48.6,29.98,NE,47,0.0,0.0,100,0.00,,,0.00,Weather View 32 v70,2013-10-19 05:57:00,
2013-10-19 02:02:00,48.6,48.6,29.98,SSW,201,0.0,0.0,100,0.00,,,0.00,Weather View 32 v70,2013-10-19 06:02:00,
2013-10-19 02:07:00,48.6,48.6,29.98,SSW,192,0.0,0.0,100,0.00,,,0.00,Weather View 32 v70,2013-10-19 06:07:00,
2013-10-19 02:12:00,48.6,48.6,29.97,SSW,192,0.0,0.0,100,0.00,,,0.00,Weather View 32 v70,2013-10-19 06:12:00,
2013-10-19 02:17:00,48.6,48.6,29.97,SSW,192,0.0,0.0,100,0.00,,,0.00,Weather View 32 v70,2013-10-19 06:17:00,
2013-10-19 02:22:00,48.7,48.7,29.97,SE,144,0.0,0.0,100,0.00,,,0.00,Weather View 32 v70,2013-10-19 06:22:00,
2013-10-19 02:27:00,48.7,48.7,29.96,SE,144,0.0,0.0,100,0.00,,,0.00,Weather View 32 v70,2013-10-19 06:27:00,
2013-10-19 02:33:00,48.7,48.7,29.96,SE,144,0.0,0.0,100,0.00,,,0.00,Weather View 32 v70,2013-10-19 06:33:00,
2013-10-19 02:38:00,48.7,48.7,29.96,NNE,15,0.0,0.0,100,0.00,,,0.00,Weather View 32 v70,2013-10-19 06:38:00,
2013-10-19 02:43:00,48.7,48.7,29.97,NNE,15,0.0,0.0,100,0.00,,,0.00,Weather View 32 v70,2013-10-19 06:43:00,
2013-10-19 02:48:00,48.8,48.8,29.96,SSW,200,0.0,0.0,100,0.00,,,0.00,Weather View 32 v70,2013-10-19 06:48:00,
2013-10-19 02:53:00,48.8,48.8,29.96,SSW,200,0.0,0.0,100,0.00,,,0.00,Weather View 32 v70,2013-10-19 06:53:00,
2013-10-19 02:58:00,48.9,48.9,29.96,SSW,199,0.0,0.0,100,0.00,,,0.00,Weather View 32 v70,2013-10-19 06:58:00,
2013-10-19 03:03:00,48.8,48.8,29.95,SSW,199,0.0,0.0,100,0.00,,,0.00,Weather View 32 v70,2013-10-19 07:03:00,
2013-10-19 03:08:00,48.8,48.8,29.95,SSW,199,0.0,0.0,100,0.00,,,0.00,Weather View 32 v70,2013-10-19 07:08:00,
2013-10-19 03:13:00,48.8,48.8,29.95,SSW,199,0.0,0.0,100,0.00,,,0.00,Weather View 32 v70,2013-10-19 07:13:00,
2013-10-19 03:18:00,48.9,48.9,29.95,SSW,199,0.0,0.0,100,0.00,,,0.00,Weather View 32 v70,2013-10-19 07:18:00,
2013-10-19 03:23:00,49.0,49.0,29.95,SSW,194,0.0,0.0,100,0.00,,,0.00,Weather View 32 v70,2013-10-19 07:23:00,
2013-10-19 03:28:00,48.9,48.9,29.96,North,356,0.0,0.0,100,0.00,,,0.00,Weather View 32 v70,2013-10-19 07:28:00,
2013-10-19 03:33:00,48.8,48.8,29.95,WSW,240,0.0,0.0,100,0.00,,,0.00,Weather View 32 v70,2013-10-19 07:33:00,
2013-10-19 03:38:00,48.8,48.8,29.95,WSW,240,0.0,0.0,100,0.00,,,0.00,Weather View 32 v70,2013-10-19 07:38:00,
2013-10-19 03:43:00,48.8,48.8,29.95,NE,38,0.0,0.0,100,0.00,,,0.00,Weather View 32 v70,2013-10-19 07:43:00,
2013-10-19 03:48:00,48.8,48.8,29.95,NE,38,0.0,0.0,100,0.00,,,0.00,Weather View 32 v70,2013-10-19 07:48:00,
2013-10-19 03:53:00,48.8,48.8,29.95,NE,38,0.0,0.0,100,0.00,,,0.00,Weather View 32 v70,2013-10-19 07:53:00,
2013-10-19 03:58:00,48.9,48.9,29.95,NE,38,0.0,0.0,100,0.00,,,0.00,Weather View 32 v70,2013-10-19 07:58:00,
2013-10-19 04:03:00,49.0,49.0,29.94,NE,38,0.0,0.0,100,0.00,,,0.00,Weather View 32 v70,2013-10-19 08:03:00,
2013-10-19 04:08:00,49.0,49.0,29.94,NE,39,0.0,0.0,100,0.00,,,0.00,Weather View 32 v70,2013-10-19 08:08:00,
2013-10-19 04:13:00,49.0,49.0,29.94,NE,39,0.0,0.0,100,0.00,,,0.00,Weather View 32 v70,2013-10-19 08:13:00,
2013-10-19 04:18:00,49.0,49.0,29.94,NE,39,0.0,0.0,100,0.00,,,0.00,Weather View 32 v70,2013-10-19 08:18:00,
2013-10-19 04:23:00,48.9,48.9,29.95,NE,39,0.0,0.0,100,0.00,,,0.00,Weather View 32 v70,2013-10-19 08:23:00,
2013-10-19 04:28:00,49.0,49.0,29.95,NE,39,0.0,0.0,100,0.00,,,0.00,Weather View 32 v70,2013-10-19 08:28:00,
2013-10-19 04:33:00,49.1,49.1,29.94,NE,43,0.0,0.0,100,0.00,,,0.00,Weather View 32 v70,2013-10-19 08:33:00,
2013-10-19 04:38:00,49.1,49.1,29.93,NE,43,0.0,0.0,100,0.00,,,0.00,Weather View 32 v70,2013-10-19 08:38:00,
2013-10-19 04:43:00,49.3,49.3,29.93,NE,44,0.0,0.0,100,0.00,,,0.00,Weather View 32 v70,2013-10-19 08:43:00,
2013-10-19 04:48:00,49.3,49.3,29.93,ENE,57,0.0,0.0,100,0.00,,,0.00,Weather View 32 v70,2013-10-19 08:48:00,
2013-10-19 04:53:00,49.3,49.3,29.94,ENE,57,0.0,0.0,100,0.00,,,0.00,Weather View 32 v70,2013-10-19 08:53:00,
2013-10-19 04:58:00,49.3,49.3,29.94,NE,50,0.0,0.0,100,0.00,,,0.00,Weather View 32 v70,2013-10-19 08:58:00,
2013-10-19 05:04:00,49.2,49.2,29.94,NE,44,0.0,0.0,100,0.00,,,0.00,Weather View 32 v70,2013-10-19 09:04:00,
2013-10-19 05:09:00,49.2,49.2,29.94,South,189,0.0,0.0,100,0.01,,,0.00,Weather View 32 v70,2013-10-19 09:09:00,
2013-10-19 05:14:00,49.2,49.2,29.93,South,189,0.0,0.0,100,0.01,,,0.00,Weather View 32 v70,2013-10-19 09:14:00,
2013-10-19 05:19:00,49.3,49.3,29.93,South,189,0.0,0.0,100,0.00,,,0.00,Weather View 32 v70,2013-10-19 09:19:00,
2013-10-19 05:24:00,49.4,49.4,29.93,East,97,0.0,0.0,100,0.00,,,0.00,Weather View 32 v70,2013-10-19 09:24:00,
2013-10-19 05:29:00,49.3,49.3,29.94,East,96,0.0,0.0,100,0.00,,,0.00,Weather View 32 v70,2013-10-19 09:29:00,
2013-10-19 05:34:00,49.3,49.3,29.94,East,96,0.0,0.0,100,0.00,,,0.00,Weather View 32 v70,2013-10-19 09:34:00,
2013-10-19 05:39:00,49.2,49.2,29.93,East,96,0.0,0.0,100,0.00,,,0.00,Weather View 32 v70,2013-10-19 09:39:00,
2013-10-19 05:44:00,49.2,49.2,29.93,East,96,0.0,0.0,100,0.00,,,0.00,Weather View 32 v70,2013-10-19 09:44:00,
2013-10-19 05:49:00,49.2,49.2,29.94,East,96,0.0,0.0,100,0.00,,,0.00,Weather View 32 v70,2013-10-19 09:49:00,
2013-10-19 05:54:00,49.1,49.1,29.94,East,96,0.0,0.0,100,0.00,,,0.00,Weather View 32 v70,2013-10-19 09:54:00,
2013-10-19 05:59:00,49.1,49.1,29.93,ENE,69,0.0,0.0,100,0.00,,,0.00,Weather View 32 v70,2013-10-19 09:59:00,
2013-10-19 06:04:00,49.0,49.0,29.93,ENE,69,0.0,1.0,100,0.00,,,0.00,Weather View 32 v70,2013-10-19 10:04:00,
2013-10-19 06:09:00,48.9,48.9,29.93,ENE,69,0.0,1.0,100,0.00,,,0.00,Weather View 32 v70,2013-10-19 10:09:00,
2013-10-19 06:14:00,49.0,49.0,29.93,ENE,69,0.0,1.0,100,0.00,,,0.00,Weather View 32 v70,2013-10-19 10:14:00,
2013-10-19 06:19:00,49.0,49.0,29.94,ENE,69,0.0,1.0,100,0.00,,,0.00,Weather View 32 v70,2013-10-19 10:19:00,
2013-10-19 06:24:00,48.9,48.9,29.94,ENE,69,0.0,1.0,100,0.00,,,0.00,Weather View 32 v70,2013-10-19 10:24:00,
2013-10-19 06:29:00,48.8,48.8,29.95,ENE,69,0.0,1.0,100,0.00,,,0.00,Weather View 32 v70,2013-10-19 10:29:00,
2013-10-19 06:34:00,48.6,48.6,29.94,SSE,163,0.0,1.0,100,0.00,,,0.00,Weather View 32 v70,2013-10-19 10:34:00,
2013-10-19 06:39:00,48.5,48.5,29.94,SSE,163,0.0,1.0,100,0.00,,,0.00,Weather View 32 v70,2013-10-19 10:39:00,
2013-10-19 06:44:00,48.4,48.4,29.93,SSE,163,0.0,1.0,100,0.00,,,0.00,Weather View 32 v70,2013-10-19 10:44:00,
2013-10-19 06:49:00,48.4,48.4,29.93,SSE,163,0.0,1.0,100,0.00,,,0.00,Weather View 32 v70,2013-10-19 10:49:00,
2013-10-19 06:54:00,48.3,48.3,29.93,SSE,163,0.0,1.0,100,0.00,,,0.00,Weather View 32 v70,2013-10-19 10:54:00,
2013-10-19 06:59:00,48.2,48.2,29.93,SSE,163,0.0,1.0,100,0.00,,,0.00,Weather View 32 v70,2013-10-19 10:59:00,
2013-10-19 07:04:00,48.2,48.2,29.93,SSE,163,0.0,1.0,100,0.00,,,0.00,Weather View 32 v70,2013-10-19 11:04:00,
2013-10-19 07:09:00,48.1,48.1,29.93,SSE,163,0.0,1.0,100,0.00,,,0.00,Weather View 32 v70,2013-10-19 11:09:00,
2013-10-19 07:14:00,48.1,48.1,29.93,SSE,163,0.0,1.0,100,0.00,,,0.00,Weather View 32 v70,2013-10-19 11:14:00,
2013-10-19 07:19:00,48.2,48.2,29.94,SSE,163,0.0,1.0,100,0.00,,,0.00,Weather View 32 v70,2013-10-19 11:19:00,
2013-10-19 07:24:00,48.3,48.3,29.94,SSE,162,0.0,1.0,100,0.00,,,0.00,Weather View 32 v70,2013-10-19 11:24:00,
2013-10-19 07:29:00,48.2,48.2,29.93,SSE,162,0.0,1.0,100,0.00,,,0.00,Weather View 32 v70,2013-10-19 11:29:00,
2013-10-19 07:34:00,48.2,48.2,29.93,SSE,162,0.0,0.0,100,0.00,,,0.00,Weather View 32 v70,2013-10-19 11:34:00,
2013-10-19 07:40:00,48.2,48.2,29.94,SSE,162,0.0,0.0,100,0.00,,,0.00,Weather View 32 v70,2013-10-19 11:40:00,
2013-10-19 07:45:00,48.2,48.2,29.94,SSE,162,0.0,0.0,100,0.00,,,0.00,Weather View 32 v70,2013-10-19 11:45:00,
2013-10-19 07:50:00,48.2,48.2,29.94,SSE,162,0.0,0.0,100,0.00,,,0.00,Weather View 32 v70,2013-10-19 11:50:00,
2013-10-19 07:55:00,48.2,48.2,29.94,SSE,162,0.0,0.0,100,0.00,,,0.00,Weather View 32 v70,2013-10-19 11:55:00,
2013-10-19 08:00:00,48.2,48.2,29.94,SSE,162,0.0,0.0,100,0.00,,,0.00,Weather View 32 v70,2013-10-19 12:00:00,
2013-10-19 08:05:00,48.2,48.2,29.93,SSE,163,0.0,0.0,100,0.00,,,0.00,Weather View 32 v70,2013-10-19 12:05:00,
2013-10-19 08:10:00,48.2,48.2,29.93,SSE,163,0.0,0.0,100,0.00,,,0.00,Weather View 32 v70,2013-10-19 12:10:00,
2013-10-19 08:15:00,48.2,48.2,29.93,SSE,155,0.0,0.0,100,0.00,,,0.00,Weather View 32 v70,2013-10-19 12:15:00,
2013-10-19 08:20:00,48.1,48.1,29.94,SSE,157,0.0,0.0,100,0.00,,,0.00,Weather View 32 v70,2013-10-19 12:20:00,
2013-10-19 08:25:00,47.9,47.9,29.94,SSW,193,0.0,0.0,100,0.00,,,0.00,Weather View 32 v70,2013-10-19 12:25:00,
2013-10-19 08:30:00,47.9,47.9,29.93,SSW,203,0.0,0.0,100,0.00,,,0.00,Weather View 32 v70,2013-10-19 12:30:00,
2013-10-19 08:35:00,48.0,48.0,29.94,SSW,203,0.0,0.0,100,0.00,,,0.00,Weather View 32 v70,2013-10-19 12:35:00,
2013-10-19 08:40:00,48.1,48.1,29.93,SSW,203,0.0,0.0,100,0.00,,,0.00,Weather View 32 v70,2013-10-19 12:40:00,
2013-10-19 08:45:00,48.2,48.2,29.93,SSW,203,0.0,0.0,100,0.00,,,0.00,Weather View 32 v70,2013-10-19 12:45:00,
2013-10-19 08:50:00,48.4,48.4,29.94,SSW,203,0.0,0.0,100,0.00,,,0.00,Weather View 32 v70,2013-10-19 12:50:00,
2013-10-19 08:55:00,48.5,48.5,29.95,SSW,203,0.0,0.0,100,0.00,,,0.00,Weather View 32 v70,2013-10-19 12:55:00,
2013-10-19 09:00:00,48.5,48.5,29.95,SSW,199,0.0,0.0,100,0.00,,,0.00,Weather View 32 v70,2013-10-19 13:00:00,
2013-10-19 09:05:00,48.6,48.6,29.94,SSW,198,0.0,0.0,100,0.00,,,0.00,Weather View 32 v70,2013-10-19 13:05:00,
2013-10-19 09:10:00,48.7,48.7,29.94,NNW,344,0.0,0.0,100,0.00,,,0.00,Weather View 32 v70,2013-10-19 13:10:00,
2013-10-19 09:15:00,49.0,49.0,29.94,NE,40,0.0,0.0,100,0.00,,,0.00,Weather View 32 v70,2013-10-19 13:15:00,
2013-10-19 09:20:00,49.2,49.2,29.94,NE,40,0.0,0.0,100,0.00,,,0.00,Weather View 32 v70,2013-10-19 13:20:00,
2013-10-19 09:25:00,49.5,49.5,29.94,SE,134,0.0,0.0,100,0.00,,,0.00,Weather View 32 v70,2013-10-19 13:25:00,
2013-10-19 09:30:00,49.8,49.8,29.93,SE,134,0.0,0.0,100,0.00,,,0.00,Weather View 32 v70,2013-10-19 13:30:00,
2013-10-19 09:35:00,49.9,49.9,29.94,ENE,71,0.0,0.0,100,0.00,,,0.00,Weather View 32 v70,2013-10-19 13:35:00,
2013-10-19 09:40:00,50.0,50.0,29.94,ENE,71,0.0,0.0,100,0.00,,,0.00,Weather View 32 v70,2013-10-19 13:40:00,
2013-10-19 09:45:00,50.0,50.0,29.94,ENE,74,0.0,0.0,100,0.00,,,0.00,Weather View 32 v70,2013-10-19 13:45:00,
2013-10-19 09:50:00,50.1,50.1,29.95,ENE,74,0.0,0.0,100,0.00,,,0.00,Weather View 32 v70,2013-10-19 13:50:00,
2013-10-19 09:55:00,50.4,50.4,29.95,NNE,19,0.0,0.0,100,0.00,,,0.00,Weather View 32 v70,2013-10-19 13:55:00,
2013-10-19 10:00:00,50.5,50.5,29.95,NNW,347,0.0,0.0,100,0.00,,,0.00,Weather View 32 v70,2013-10-19 14:00:00,
2013-10-19 10:05:00,50.4,50.4,29.95,WSW,252,0.0,0.0,100,0.00,,,0.00,Weather View 32 v70,2013-10-19 14:05:00,
2013-10-19 10:10:00,50.4,50.4,29.95,WSW,253,0.0,0.0,100,0.00,,,0.00,Weather View 32 v70,2013-10-19 14:10:00,
2013-10-19 10:15:00,50.5,50.5,29.94,WSW,253,0.0,0.0,100,0.00,,,0.00,Weather View 32 v70,2013-10-19 14:15:00,
2013-10-19 10:20:00,50.7,50.7,29.94,NNE,23,0.0,0.0,100,0.00,,,0.00,Weather View 32 v70,2013-10-19 14:20:00,
2013-10-19 10:25:00,50.9,50.9,29.94,NE,48,0.0,0.0,100,0.00,,,0.00,Weather View 32 v70,2013-10-19 14:25:00,
2013-10-19 10:30:00,51.2,51.2,29.95,NE,34,0.0,0.0,100,0.00,,,0.00,Weather View 32 v70,2013-10-19 14:30:00,
2013-10-19 10:36:00,51.5,51.5,29.94,NE,34,0.0,0.0,100,0.00,,,0.00,Weather View 32 v70,2013-10-19 14:36:00,
2013-10-19 10:41:00,51.6,51.6,29.94,NNE,33,0.0,0.0,100,0.00,,,0.00,Weather View 32 v70,2013-10-19 14:41:00,
2013-10-19 10:46:00,51.7,51.7,29.95,NE,34,0.0,0.0,100,0.00,,,0.00,Weather View 32 v70,2013-10-19 14:46:00,
2013-10-19 10:51:00,52.0,52.0,29.94,NE,34,0.0,0.0,100,0.00,,,0.00,Weather View 32 v70,2013-10-19 14:51:00,
2013-10-19 10:56:00,52.2,52.2,29.95,NE,34,0.0,0.0,100,0.00,,,0.00,Weather View 32 v70,2013-10-19 14:56:00,
2013-10-19 11:01:00,52.4,52.4,29.95,NNE,32,0.0,0.0,100,0.00,,,0.00,Weather View 32 v70,2013-10-19 15:01:00,
2013-10-19 11:06:00,52.5,52.2,29.94,NNE,30,0.0,0.0,99,0.00,,,0.00,Weather View 32 v70,2013-10-19 15:06:00,
2013-10-19 11:11:00,52.8,52.5,29.95,NNE,31,0.0,0.0,99,0.00,,,0.00,Weather View 32 v70,2013-10-19 15:11:00,
2013-10-19 11:16:00,53.0,52.7,29.95,NNE,31,0.0,0.0,99,0.00,,,0.00,Weather View 32 v70,2013-10-19 15:16:00,
2013-10-19 11:21:00,53.2,52.6,29.95,NNE,31,0.0,0.0,98,0.00,,,0.00,Weather View 32 v70,2013-10-19 15:21:00,
2013-10-19 11:26:00,53.5,52.7,29.95,NNE,31,0.0,0.0,97,0.00,,,0.00,Weather View 32 v70,2013-10-19 15:26:00,
2013-10-19 11:31:00,53.5,52.7,29.95,NNE,31,0.0,0.0,97,0.00,,,0.00,Weather View 32 v70,2013-10-19 15:31:00,
2013-10-19 11:36:00,53.6,52.5,29.95,ENE,69,0.0,0.0,96,0.00,,,0.00,Weather View 32 v70,2013-10-19 15:36:00,
2013-10-19 11:41:00,53.8,52.4,29.95,ENE,63,0.0,0.0,95,0.00,,,0.00,Weather View 32 v70,2013-10-19 15:41:00,
2013-10-19 11:46:00,54.1,52.7,29.95,ENE,63,0.0,0.0,95,0.00,,,0.00,Weather View 32 v70,2013-10-19 15:46:00,
2013-10-19 11:51:00,54.2,53.1,29.95,ENE,63,0.0,0.0,96,0.00,,,0.00,Weather View 32 v70,2013-10-19 15:51:00,
2013-10-19 11:56:00,54.3,53.2,29.94,ENE,63,0.0,0.0,96,0.00,,,0.00,Weather View 32 v70,2013-10-19 15:56:00,
2013-10-19 12:01:00,54.4,53.3,29.95,ENE,63,0.0,0.0,96,0.00,,,0.00,Weather View 32 v70,2013-10-19 16:01:00,
2013-10-19 12:06:00,54.3,52.6,29.95,North,6,0.0,0.0,94,0.00,,,0.00,Weather View 32 v70,2013-10-19 16:06:00,
2013-10-19 12:11:00,54.3,51.7,29.94,North,358,0.0,0.0,91,0.00,,,0.00,Weather View 32 v70,2013-10-19 16:11:00,
2013-10-19 12:16:00,54.4,52.1,29.93,East,83,0.0,0.0,92,0.00,,,0.00,Weather View 32 v70,2013-10-19 16:16:00,
2013-10-19 12:21:00,54.7,52.4,29.92,East,81,0.0,0.0,92,0.00,,,0.00,Weather View 32 v70,2013-10-19 16:21:00,
2013-10-19 12:26:00,55.1,52.8,29.92,ENE,64,0.0,0.0,92,0.00,,,0.00,Weather View 32 v70,2013-10-19 16:26:00,
2013-10-19 12:31:00,55.3,53.0,29.92,East,98,0.0,0.0,92,0.00,,,0.00,Weather View 32 v70,2013-10-19 16:31:00,
2013-10-19 12:36:00,55.6,53.0,29.90,East,98,0.0,0.0,91,0.00,,,0.00,Weather View 32 v70,2013-10-19 16:36:00,
2013-10-19 12:41:00,55.9,53.6,29.90,SE,129,0.0,0.0,92,0.00,,,0.00,Weather View 32 v70,2013-10-19 16:41:00,
2013-10-19 12:46:00,56.2,53.9,29.90,SE,128,0.0,0.0,92,0.00,,,0.00,Weather View 32 v70,2013-10-19 16:46:00,
2013-10-19 12:51:00,56.3,54.0,29.91,ENE,78,0.0,0.0,92,0.00,,,0.00,Weather View 32 v70,2013-10-19 16:51:00,
2013-10-19 12:56:00,56.4,54.4,29.92,East,79,0.0,0.0,93,0.00,,,0.00,Weather View 32 v70,2013-10-19 16:56:00,
2013-10-19 13:01:00,56.3,54.3,29.93,NE,42,0.0,1.0,93,0.00,,,0.00,Weather View 32 v70,2013-10-19 17:01:00,
2013-10-19 13:07:00,56.2,53.6,29.92,NNW,337,0.0,4.0,91,0.00,,,0.00,Weather View 32 v70,2013-10-19 17:07:00,
2013-10-19 13:12:00,56.2,53.0,29.93,NE,43,0.0,5.0,89,0.00,,,0.00,Weather View 32 v70,2013-10-19 17:12:00,
2013-10-19 13:17:00,56.5,53.3,29.93,NNW,341,0.0,5.0,89,0.00,,,0.00,Weather View 32 v70,2013-10-19 17:17:00,
2013-10-19 13:22:00,56.7,51.9,29.92,NW,310,0.0,5.0,84,0.00,,,0.00,Weather View 32 v70,2013-10-19 17:22:00,
2013-10-19 13:27:00,57.1,51.0,29.92,SSW,211,0.0,5.0,80,0.00,,,0.00,Weather View 32 v70,2013-10-19 17:27:00,
2013-10-19 13:32:00,57.6,53.1,29.91,SSW,209,0.0,5.0,85,0.00,,,0.00,Weather View 32 v70,2013-10-19 17:32:00,
2013-10-19 13:37:00,57.7,53.2,29.90,SSW,207,0.0,5.0,85,0.00,,,0.00,Weather View 32 v70,2013-10-19 17:37:00,
2013-10-19 13:42:00,57.8,52.0,29.90,WNW,287,0.0,5.0,81,0.00,,,0.00,Weather View 32 v70,2013-10-19 17:42:00,
2013-10-19 13:47:00,58.0,51.8,29.90,WSW,248,0.0,5.0,80,0.00,,,0.00,Weather View 32 v70,2013-10-19 17:47:00,
2013-10-19 13:52:00,58.2,50.7,29.91,SSW,210,0.0,5.0,76,0.00,,,0.00,Weather View 32 v70,2013-10-19 17:52:00,
2013-10-19 13:57:00,58.3,48.2,29.89,WSW,256,0.0,5.0,69,0.00,,,0.00,Weather View 32 v70,2013-10-19 17:57:00,
2013-10-19 14:02:00,58.6,47.7,29.90,West,280,2.0,7.0,67,0.00,,,0.00,Weather View 32 v70,2013-10-19 18:02:00,
2013-10-19 14:07:00,58.9,47.5,29.91,SW,225,1.0,7.0,66,0.00,,,0.00,Weather View 32 v70,2013-10-19 18:07:00,
2013-10-19 14:12:00,58.8,44.9,29.91,NNW,327,2.0,7.0,60,0.00,,,0.00,Weather View 32 v70,2013-10-19 18:12:00,
2013-10-19 14:17:00,58.7,44.8,29.91,West,277,1.0,7.0,60,0.00,,,0.00,Weather View 32 v70,2013-10-19 18:17:00,
2013-10-19 14:22:00,58.4,46.2,29.92,SSW,207,0.0,7.0,64,0.00,,,0.00,Weather View 32 v70,2013-10-19 18:22:00,
2013-10-19 14:27:00,57.8,45.3,29.91,ESE,123,0.0,7.0,63,0.00,,,0.00,Weather View 32 v70,2013-10-19 18:27:00,
2013-10-19 14:32:00,57.2,47.1,29.91,SW,233,0.0,7.0,69,0.00,,,0.00,Weather View 32 v70,2013-10-19 18:32:00,
2013-10-19 14:37:00,56.6,46.1,29.92,SW,218,1.0,7.0,68,0.00,,,0.00,Weather View 32 v70,2013-10-19 18:37:00,
2013-10-19 14:42:00,56.4,47.8,29.92,ENE,70,0.0,7.0,73,0.00,,,0.00,Weather View 32 v70,2013-10-19 18:42:00,
2013-10-19 14:47:00,56.2,48.4,29.92,South,186,0.0,7.0,75,0.00,,,0.00,Weather View 32 v70,2013-10-19 18:47:00,
2013-10-19 14:52:00,56.2,48.7,29.91,South,186,0.0,7.0,76,0.00,,,0.00,Weather View 32 v70,2013-10-19 18:52:00,
2013-10-19 14:57:00,56.1,46.4,29.91,NNE,21,0.0,7.0,70,0.00,,,0.00,Weather View 32 v70,2013-10-19 18:57:00,
2013-10-19 15:02:00,56.5,47.2,29.91,ENE,63,0.0,6.0,71,0.00,,,0.00,Weather View 32 v70,2013-10-19 19:02:00,
2013-10-19 15:07:00,57.0,45.7,29.91,SE,127,1.0,6.0,66,0.00,,,0.00,Weather View 32 v70,2013-10-19 19:07:00,
2013-10-19 15:12:00,57.6,46.7,29.91,NW,313,0.0,6.0,67,0.00,,,0.00,Weather View 32 v70,2013-10-19 19:12:00,
2013-10-19 15:17:00,57.9,45.8,29.90,WNW,285,0.0,5.0,64,0.00,,,0.00,Weather View 32 v70,2013-10-19 19:17:00,
2013-10-19 15:22:00,58.1,45.5,29.90,ENE,76,0.0,5.0,63,0.00,,,0.00,Weather View 32 v70,2013-10-19 19:22:00,
2013-10-19 15:27:00,57.9,45.4,29.90,East,92,1.0,5.0,63,0.00,,,0.00,Weather View 32 v70,2013-10-19 19:27:00,
2013-10-19 15:32:00,57.8,45.7,29.90,WSW,243,0.0,5.0,64,0.00,,,0.00,Weather View 32 v70,2013-10-19 19:32:00,
2013-10-19 15:37:00,58.0,47.9,29.90,South,172,0.0,5.0,69,0.00,,,0.00,Weather View 32 v70,2013-10-19 19:37:00,
2013-10-19 15:42:00,58.4,47.1,29.90,North,11,0.0,5.0,66,0.00,,,0.00,Weather View 32 v70,2013-10-19 19:42:00,
2013-10-19 15:47:00,58.9,48.3,29.90,NNE,16,0.0,5.0,68,0.00,,,0.00,Weather View 32 v70,2013-10-19 19:47:00,
2013-10-19 15:52:00,59.2,49.0,29.90,North,10,0.0,5.0,69,0.00,,,0.00,Weather View 32 v70,2013-10-19 19:52:00,
2013-10-19 15:57:00,59.2,47.0,29.90,North,6,1.0,5.0,64,0.00,,,0.00,Weather View 32 v70,2013-10-19 19:57:00,
2013-10-19 16:02:00,59.1,47.3,29.90,North,9,0.0,5.0,65,0.00,,,0.00,Weather View 32 v70,2013-10-19 20:02:00,
2013-10-19 16:08:00,59.2,48.2,29.90,East,95,0.0,5.0,67,0.00,,,0.00,Weather View 32 v70,2013-10-19 20:08:00,
2013-10-19 16:13:00,59.1,48.5,29.90,NNE,25,0.0,5.0,68,0.00,,,0.00,Weather View 32 v70,2013-10-19 20:13:00,
2013-10-19 16:18:00,59.2,47.8,29.90,NE,44,0.0,5.0,66,0.00,,,0.00,Weather View 32 v70,2013-10-19 20:18:00,
2013-10-19 16:23:00,59.3,47.1,29.90,NW,307,0.0,5.0,64,0.00,,,0.00,Weather View 32 v70,2013-10-19 20:23:00,
2013-10-19 16:28:00,59.4,47.6,29.91,NNE,29,0.0,5.0,65,0.00,,,0.00,Weather View 32 v70,2013-10-19 20:28:00,
2013-10-19 16:33:00,59.6,49.0,29.91,West,271,0.0,5.0,68,0.00,,,0.00,Weather View 32 v70,2013-10-19 20:33:00,
2013-10-19 16:38:00,59.4,47.6,29.91,North,350,2.0,5.0,65,0.00,,,0.00,Weather View 32 v70,2013-10-19 20:38:00,
2013-10-19 16:43:00,58.9,46.7,29.91,NNE,26,2.0,5.0,64,0.00,,,0.00,Weather View 32 v70,2013-10-19 20:43:00,
2013-10-19 16:48:00,58.5,47.6,29.91,West,271,0.0,5.0,67,0.00,,,0.00,Weather View 32 v70,2013-10-19 20:48:00,
2013-10-19 16:53:00,58.2,46.1,29.91,NNE,12,2.0,5.0,64,0.00,,,0.00,Weather View 32 v70,2013-10-19 20:53:00,
2013-10-19 16:58:00,58.0,45.0,29.91,East,87,0.0,5.0,62,0.00,,,0.00,Weather View 32 v70,2013-10-19 20:58:00,
2013-10-19 17:03:00,57.8,46.9,29.91,East,81,0.0,6.0,67,0.00,,,0.00,Weather View 32 v70,2013-10-19 21:03:00,
2013-10-19 17:08:00,57.8,45.3,29.90,NNE,22,0.0,6.0,63,0.00,,,0.00,Weather View 32 v70,2013-10-19 21:08:00,
2013-10-19 17:13:00,58.0,47.9,29.90,SSW,202,0.0,6.0,69,0.00,,,0.00,Weather View 32 v70,2013-10-19 21:13:00,
2013-10-19 17:18:00,58.3,48.5,29.90,NE,52,0.0,6.0,70,0.00,,,0.00,Weather View 32 v70,2013-10-19 21:18:00,
2013-10-19 17:23:00,58.3,47.8,29.90,SSW,212,0.0,6.0,68,0.00,,,0.00,Weather View 32 v70,2013-10-19 21:23:00,
2013-10-19 17:28:00,58.1,46.0,29.90,NW,310,1.0,6.0,64,0.00,,,0.00,Weather View 32 v70,2013-10-19 21:28:00,
2013-10-19 17:33:00,58.1,46.0,29.90,NNW,347,0.0,6.0,64,0.00,,,0.00,Weather View 32 v70,2013-10-19 21:33:00,
2013-10-19 17:38:00,58.4,46.2,29.90,WNW,293,4.0,6.0,64,0.00,,,0.00,Weather View 32 v70,2013-10-19 21:38:00,
2013-10-19 17:43:00,58.4,49.0,29.90,ESE,119,0.0,6.0,71,0.00,,,0.00,Weather View 32 v70,2013-10-19 21:43:00,
2013-10-19 17:48:00,58.1,47.6,29.90,West,279,1.0,6.0,68,0.00,,,0.00,Weather View 32 v70,2013-10-19 21:48:00,
2013-10-19 17:53:00,58.0,47.1,29.91,NW,320,3.0,7.0,67,0.00,,,0.00,Weather View 32 v70,2013-10-19 21:53:00,
2013-10-19 17:58:00,58.0,47.5,29.91,SSE,162,0.0,7.0,68,0.00,,,0.00,Weather View 32 v70,2013-10-19 21:58:00,
2013-10-19 18:03:00,57.7,47.2,29.91,North,354,1.0,9.0,68,0.00,,,0.00,Weather View 32 v70,2013-10-19 22:03:00,
2013-10-19 18:08:00,57.6,47.1,29.91,West,274,1.0,9.0,68,0.00,,,0.00,Weather View 32 v70,2013-10-19 22:08:00,
2013-10-19 18:13:00,57.4,48.4,29.91,West,263,0.0,9.0,72,0.00,,,0.00,Weather View 32 v70,2013-10-19 22:13:00,
2013-10-19 18:18:00,57.1,48.1,29.91,WNW,297,0.0,9.0,72,0.00,,,0.00,Weather View 32 v70,2013-10-19 22:18:00,
2013-10-19 18:23:00,56.7,49.6,29.91,South,179,0.0,9.0,77,0.00,,,0.00,Weather View 32 v70,2013-10-19 22:23:00,
2013-10-19 18:28:00,56.2,49.8,29.91,SSE,164,0.0,9.0,79,0.00,,,0.00,Weather View 32 v70,2013-10-19 22:28:00,
2013-10-19 18:33:00,55.7,49.6,29.91,NW,307,0.0,9.0,80,0.00,,,0.00,Weather View 32 v70,2013-10-19 22:33:00,
2013-10-19 18:39:00,55.2,49.8,29.91,South,179,0.0,9.0,82,0.00,,,0.00,Weather View 32 v70,2013-10-19 22:39:00,
2013-10-19 18:44:00,54.8,49.7,29.91,SSW,201,0.0,9.0,83,0.00,,,0.00,Weather View 32 v70,2013-10-19 22:44:00,
2013-10-19 18:49:00,54.2,48.8,29.91,WNW,284,0.0,9.0,82,0.00,,,0.00,Weather View 32 v70,2013-10-19 22:49:00,
2013-10-19 18:54:00,53.6,48.9,29.92,SSE,163,0.0,9.0,84,0.00,,,0.00,Weather View 32 v70,2013-10-19 22:54:00,
2013-10-19 18:59:00,53.2,48.8,29.92,SSE,161,0.0,9.0,85,0.00,,,0.00,Weather View 32 v70,2013-10-19 22:59:00,
2013-10-19 19:04:00,52.7,48.3,29.92,SSW,201,0.0,7.0,85,0.00,,,0.00,Weather View 32 v70,2013-10-19 23:04:00,
2013-10-19 19:09:00,52.1,48.0,29.92,WSW,240,0.0,3.0,86,0.00,,,0.00,Weather View 32 v70,2013-10-19 23:09:00,
2013-10-19 19:14:00,52.0,48.2,29.92,SSW,209,0.0,3.0,87,0.00,,,0.00,Weather View 32 v70,2013-10-19 23:14:00,
2013-10-19 19:19:00,51.9,48.5,29.92,SSW,205,0.0,3.0,88,0.00,,,0.00,Weather View 32 v70,2013-10-19 23:19:00,
2013-10-19 19:24:00,51.7,48.3,29.92,SSW,202,0.0,3.0,88,0.00,,,0.00,Weather View 32 v70,2013-10-19 23:24:00,
2013-10-19 19:29:00,51.4,48.3,29.92,SE,124,0.0,3.0,89,0.00,,,0.00,Weather View 32 v70,2013-10-19 23:29:00,
2013-10-19 19:34:00,51.4,48.3,29.92,SSW,198,0.0,3.0,89,0.00,,,0.00,Weather View 32 v70,2013-10-19 23:34:00,
2013-10-19 19:39:00,51.4,48.6,29.92,SE,124,0.0,3.0,90,0.00,,,0.00,Weather View 32 v70,2013-10-19 23:39:00,
2013-10-19 19:44:00,51.2,48.4,29.92,SE,124,0.0,3.0,90,0.00,,,0.00,Weather View 32 v70,2013-10-19 23:44:00,
2013-10-19 19:49:00,50.9,48.4,29.93,SSW,203,0.0,3.0,91,0.00,,,0.00,Weather View 32 v70,2013-10-19 23:49:00,
2013-10-19 19:54:00,50.5,48.0,29.92,SSW,195,0.0,3.0,91,0.00,,,0.00,Weather View 32 v70,2013-10-19 23:54:00,
2013-10-19 19:59:00,50.3,48.1,29.93,SSW,195,0.0,3.0,92,0.00,,,0.00,Weather View 32 v70,2013-10-19 23:59:00,
2013-10-19 20:04:00,50.1,47.9,29.93,SSW,194,0.0,3.0,92,0.00,,,0.00,Weather View 32 v70,2013-10-20 00:04:00,
2013-10-19 20:09:00,50.0,48.1,29.93,SSE,154,0.0,3.0,93,0.00,,,0.00,Weather View 32 v70,2013-10-20 00:09:00,
2013-10-19 20:14:00,49.9,48.2,29.93,South,172,0.0,1.0,94,0.00,,,0.00,Weather View 32 v70,2013-10-20 00:14:00,
2013-10-19 20:19:00,50.0,48.3,29.93,South,172,0.0,1.0,94,0.00,,,0.00,Weather View 32 v70,2013-10-20 00:19:00,
2013-10-19 20:24:00,50.0,48.3,29.93,WSW,238,0.0,1.0,94,0.00,,,0.00,Weather View 32 v70,2013-10-20 00:24:00,
2013-10-19 20:29:00,50.0,48.3,29.93,SW,236,0.0,1.0,94,0.00,,,0.00,Weather View 32 v70,2013-10-20 00:29:00,
2013-10-19 20:34:00,50.1,48.4,29.93,South,173,0.0,0.0,94,0.00,,,0.00,Weather View 32 v70,2013-10-20 00:34:00,
2013-10-19 20:39:00,50.7,49.0,29.93,ESE,112,0.0,5.0,94,0.00,,,0.00,Weather View 32 v70,2013-10-20 00:39:00,
2013-10-19 20:44:00,50.9,49.2,29.93,NE,56,0.0,5.0,94,0.00,,,0.00,Weather View 32 v70,2013-10-20 00:44:00,
2013-10-19 20:49:00,50.9,49.2,29.94,SW,227,3.0,5.0,94,0.00,,,0.00,Weather View 32 v70,2013-10-20 00:49:00,
2013-10-19 20:54:00,51.2,49.2,29.94,East,95,0.0,6.0,93,0.00,,,0.00,Weather View 32 v70,2013-10-20 00:54:00,
2013-10-19 20:59:00,51.3,49.3,29.94,SE,146,0.0,6.0,93,0.00,,,0.00,Weather View 32 v70,2013-10-20 00:59:00,
2013-10-19 21:04:00,51.3,49.3,29.94,NE,44,0.0,6.0,93,0.00,,,0.00,Weather View 32 v70,2013-10-20 01:04:00,
2013-10-19 21:10:00,51.1,49.4,29.94,NE,44,0.0,6.0,94,0.00,,,0.00,Weather View 32 v70,2013-10-20 01:10:00,
2013-10-19 21:15:00,51.0,49.3,29.94,SSW,206,0.0,6.0,94,0.00,,,0.00,Weather View 32 v70,2013-10-20 01:15:00,
2013-10-19 21:20:00,50.9,49.2,29.94,NW,323,0.0,6.0,94,0.00,,,0.00,Weather View 32 v70,2013-10-20 01:20:00,
2013-10-19 21:25:00,50.8,49.1,29.94,SE,132,0.0,6.0,94,0.00,,,0.00,Weather View 32 v70,2013-10-20 01:25:00,
2013-10-19 21:30:00,50.8,49.1,29.94,South,183,0.0,6.0,94,0.00,,,0.00,Weather View 32 v70,2013-10-20 01:30:00,
2013-10-19 21:35:00,50.9,48.9,29.94,South,183,0.0,6.0,93,0.00,,,0.00,Weather View 32 v70,2013-10-20 01:35:00,
2013-10-19 21:40:00,50.8,48.8,29.94,SE,140,0.0,6.0,93,0.00,,,0.00,Weather View 32 v70,2013-10-20 01:40:00,
2013-10-19 21:45:00,50.7,49.0,29.94,SE,140,0.0,6.0,94,0.00,,,0.00,Weather View 32 v70,2013-10-20 01:45:00,
2013-10-19 21:50:00,50.5,48.8,29.94,South,185,0.0,6.0,94,0.00,,,0.00,Weather View 32 v70,2013-10-20 01:50:00,
2013-10-19 21:55:00,50.2,48.5,29.94,SSW,203,0.0,0.0,94,0.00,,,0.00,Weather View 32 v70,2013-10-20 01:55:00,
2013-10-19 22:00:00,49.9,48.2,29.94,SE,142,0.0,0.0,94,0.00,,,0.00,Weather View 32 v70,2013-10-20 02:00:00,
2013-10-19 22:05:00,49.7,48.0,29.94,SSE,162,0.0,0.0,94,0.00,,,0.00,Weather View 32 v70,2013-10-20 02:05:00,
2013-10-19 22:10:00,49.5,48.1,29.94,WSW,249,0.0,0.0,95,0.00,,,0.00,Weather View 32 v70,2013-10-20 02:10:00,
2013-10-19 22:15:00,49.3,47.9,29.95,WSW,248,0.0,0.0,95,0.00,,,0.00,Weather View 32 v70,2013-10-20 02:15:00,
2013-10-19 22:20:00,49.1,48.0,29.95,South,190,0.0,0.0,96,0.00,,,0.00,Weather View 32 v70,2013-10-20 02:20:00,
2013-10-19 22:25:00,49.0,47.9,29.95,South,190,0.0,0.0,96,0.00,,,0.00,Weather View 32 v70,2013-10-20 02:25:00,
2013-10-19 22:30:00,48.9,47.8,29.95,SSE,153,0.0,0.0,96,0.00,,,0.00,Weather View 32 v70,2013-10-20 02:30:00,
2013-10-19 22:35:00,48.7,47.9,29.95,SSE,153,0.0,0.0,97,0.00,,,0.00,Weather View 32 v70,2013-10-20 02:35:00,
2013-10-19 22:40:00,48.4,47.3,29.96,West,262,0.0,0.0,96,0.00,,,0.00,Weather View 32 v70,2013-10-20 02:40:00,
2013-10-19 22:45:00,48.2,47.4,29.95,WSW,239,0.0,0.0,97,0.00,,,0.00,Weather View 32 v70,2013-10-20 02:45:00,
2013-10-19 22:50:00,48.2,47.4,29.95,ESE,103,0.0,0.0,97,0.00,,,0.00,Weather View 32 v70,2013-10-20 02:50:00,
2013-10-19 22:55:00,48.3,47.2,29.96,East,92,0.0,1.0,96,0.00,,,0.00,Weather View 32 v70,2013-10-20 02:55:00,
2013-10-19 23:00:00,48.3,47.2,29.96,ESE,117,0.0,1.0,96,0.00,,,0.00,Weather View 32 v70,2013-10-20 03:00:00,
2013-10-19 23:05:00,48.3,47.5,29.96,ENE,66,0.0,1.0,97,0.00,,,0.00,Weather View 32 v70,2013-10-20 03:05:00,
2013-10-19 23:10:00,48.1,47.0,29.96,SE,143,0.0,1.0,96,0.00,,,0.00,Weather View 32 v70,2013-10-20 03:10:00,
2013-10-19 23:15:00,47.9,47.1,29.96,SE,143,0.0,1.0,97,0.00,,,0.00,Weather View 32 v70,2013-10-20 03:15:00,
2013-10-19 23:20:00,47.7,46.9,29.95,SE,129,0.0,1.0,97,0.00,,,0.00,Weather View 32 v70,2013-10-20 03:20:00,
2013-10-19 23:25:00,47.6,46.8,29.96,SW,220,0.0,1.0,97,0.00,,,0.00,Weather View 32 v70,2013-10-20 03:25:00,
2013-10-19 23:30:00,47.5,46.7,29.96,NE,51,0.0,1.0,97,0.00,,,0.00,Weather View 32 v70,2013-10-20 03:30:00,
2013-10-19 23:35:00,47.3,46.5,29.96,NE,55,0.0,1.0,97,0.00,,,0.00,Weather View 32 v70,2013-10-20 03:35:00,
2013-10-19 23:40:00,47.2,46.7,29.96,ESE,109,0.0,1.0,98,0.00,,,0.00,Weather View 32 v70,2013-10-20 03:40:00,
2013-10-19 23:45:00,47.1,46.3,29.96,East,98,0.0,1.0,97,0.00,,,0.00,Weather View 32 v70,2013-10-20 03:45:00,
2013-10-19 23:50:00,47.0,46.2,29.96,East,98,0.0,1.0,97,0.00,,,0.00,Weather View 32 v70,2013-10-20 03:50:00,
2013-10-19 23:55:00,46.9,46.1,29.96,North,5,0.0,0.0,97,0.00,,,0.00,Weather View 32 v70,2013-10-20 03:55:00,